Time;durP1;ratioP1;P1;durP2;ratioP2;P2;SDS_P1;SDS_P2;PMS_P1;PMS_P2;Temp;Humidity;BMP_temperature;BMP_pressure;BME280_temperature;BME280_humidity;BME280_pressure;Samples;Min_cycle;Max_cycle;Signal;HPM_P1;HPM_P2
2023/08/13 00:00:36;;;;;;;7.50;2.60;;;;;;;16.90;100.00;101558.53;5048383;28;20071;-65
2023/08/13 00:03:02;;;;;;;9.57;2.75;;;;;;;16.83;100.00;101552.34;5048089;28;20504;-65
2023/08/13 00:05:27;;;;;;;7.95;2.65;;;;;;;16.78;100.00;101554.84;5048655;28;20021;-66
2023/08/13 00:07:52;;;;;;;8.07;2.42;;;;;;;16.77;100.00;101553.09;5048564;28;20503;-65
2023/08/13 00:10:18;;;;;;;6.50;2.50;;;;;;;16.73;100.00;101543.44;5048540;28;20025;-66
2023/08/13 00:12:43;;;;;;;7.15;2.67;;;;;;;16.71;100.00;101541.66;5048735;28;20032;-66
2023/08/13 00:15:10;;;;;;;9.85;3.00;;;;;;;16.67;100.00;101540.72;5048248;28;20402;-65
2023/08/13 00:17:35;;;;;;;8.68;2.95;;;;;;;16.60;100.00;101544.06;5048700;28;20153;-66
2023/08/13 00:20:01;;;;;;;6.80;2.40;;;;;;;16.60;100.00;101551.94;5048685;28;20021;-65
2023/08/13 00:22:26;;;;;;;8.32;2.22;;;;;;;16.58;100.00;101548.41;5049130;28;20025;-66
2023/08/13 00:24:54;;;;;;;5.60;2.10;;;;;;;16.54;100.00;101543.13;5048560;28;20098;-66
2023/08/13 00:27:19;;;;;;;8.43;2.42;;;;;;;16.47;100.00;101538.63;5047687;28;20017;-65
2023/08/13 00:29:44;;;;;;;9.23;2.50;;;;;;;16.45;100.00;101542.94;5048162;28;20025;-65
2023/08/13 00:32:09;;;;;;;10.35;2.38;;;;;;;16.37;100.00;101540.16;5048506;28;20465;-65
2023/08/13 00:34:35;;;;;;;6.07;2.30;;;;;;;16.32;100.00;101539.19;5048449;28;20186;-66
2023/08/13 00:37:00;;;;;;;8.02;2.28;;;;;;;16.30;100.00;101544.41;5047768;28;20056;-65
2023/08/13 00:39:25;;;;;;;9.10;2.53;;;;;;;16.24;100.00;101536.47;5048140;28;20039;-66
2023/08/13 00:41:52;;;;;;;10.75;3.00;;;;;;;16.19;100.00;101538.09;5048367;28;20083;-65
2023/08/13 00:44:18;;;;;;;5.38;2.13;;;;;;;16.18;100.00;101538.94;5048461;28;20388;-65
2023/08/13 00:46:43;;;;;;;8.38;2.33;;;;;;;16.17;100.00;101534.56;5047983;28;20025;-65
2023/08/13 00:49:09;;;;;;;6.20;2.20;;;;;;;16.14;100.00;101537.09;5048122;28;20052;-66
2023/08/13 00:51:36;;;;;;;9.80;2.45;;;;;;;16.07;100.00;101529.16;5048215;28;20025;-65
2023/08/13 00:54:01;;;;;;;5.80;2.30;;;;;;;16.01;100.00;101523.78;5048738;28;20502;-65
2023/08/13 00:56:27;;;;;;;7.38;2.28;;;;;;;16.01;100.00;101521.16;5048149;28;20044;-66
2023/08/13 00:58:53;;;;;;;7.05;2.17;;;;;;;16.01;100.00;101529.00;5048067;28;20373;-65
2023/08/13 01:01:18;;;;;;;9.90;2.40;;;;;;;16.03;100.00;101526.47;5047466;28;20106;-65
2023/08/13 01:03:43;;;;;;;6.63;1.92;;;;;;;16.00;100.00;101524.66;5048072;28;20154;-65
2023/08/13 01:06:16;;;;;;;9.70;2.65;;;;;;;16.00;100.00;101521.16;5048262;28;20025;-65
2023/08/13 01:08:47;;;;;;;9.10;2.50;;;;;;;15.98;100.00;101528.94;5048263;28;20479;-65
2023/08/13 01:11:31;;;;;;;;;;;;;;;15.95;100.00;101526.25;5048586;28;20033;-65
2023/08/13 01:14:10;;;;;;;5.07;2.35;;;;;;;15.94;100.00;101527.09;5050063;28;19958;-65
2023/08/13 01:16:41;;;;;;;6.25;1.90;;;;;;;15.89;100.00;101524.41;5051791;28;20029;-65
2023/08/13 01:19:08;;;;;;;;;;;;;;;15.86;100.00;101529.56;5052910;28;20024;-65
2023/08/13 01:21:33;;;;;;;9.93;2.30;;;;;;;15.81;100.00;101534.66;5052421;28;19908;-65
2023/08/13 01:23:58;;;;;;;8.48;2.35;;;;;;;15.80;100.00;101530.31;5051637;28;20376;-65
2023/08/13 01:26:27;;;;;;;5.28;2.00;;;;;;;15.78;100.00;101528.50;5051650;28;20017;-65
2023/08/13 01:29:07;;;;;;;7.60;2.00;;;;;;;15.76;100.00;101531.09;5050829;28;20028;-65
2023/08/13 01:31:37;;;;;;;9.68;2.42;;;;;;;15.73;100.00;101523.19;5051669;28;20434;-65
2023/08/13 01:34:04;;;;;;;7.18;2.55;;;;;;;15.75;100.00;101531.06;5051545;28;20043;-66
2023/08/13 01:36:32;;;;;;;9.15;2.08;;;;;;;15.74;100.00;101530.16;5051211;28;20028;-65
2023/08/13 01:38:58;;;;;;;8.15;2.10;;;;;;;15.68;100.00;101530.94;5050876;28;20052;-66
2023/08/13 01:41:34;;;;;;;8.30;2.00;;;;;;;15.71;100.00;101535.34;5051422;28;20078;-65
2023/08/13 01:43:59;;;;;;;6.65;1.88;;;;;;;15.71;100.00;101524.88;5051105;28;20045;-65
2023/08/13 01:46:24;;;;;;;7.28;1.98;;;;;;;15.73;100.00;101534.53;5051360;28;20328;-65
2023/08/13 01:48:49;;;;;;;7.75;2.33;;;;;;;15.77;100.00;101530.25;5051451;28;20043;-66
2023/08/13 01:51:15;;;;;;;7.40;2.30;;;;;;;15.80;100.00;101532.91;5050996;28;20029;-65
2023/08/13 01:53:40;;;;;;;7.50;1.75;;;;;;;15.80;100.00;101535.53;5051011;28;20481;-65
2023/08/13 01:56:05;;;;;;;9.95;2.42;;;;;;;15.77;100.00;101538.09;5051211;28;20086;-65
2023/08/13 01:58:30;;;;;;;9.27;2.50;;;;;;;15.82;100.00;101540.78;5050914;28;20027;-66
2023/08/13 02:00:56;;;;;;;9.32;2.17;;;;;;;15.80;100.00;101535.53;5051110;28;20479;-65
2023/08/13 02:03:21;;;;;;;7.38;2.20;;;;;;;15.80;100.00;101535.53;5050740;28;20035;-65
2023/08/13 02:05:46;;;;;;;6.63;2.00;;;;;;;15.82;100.00;101539.06;5051024;28;20485;-66
2023/08/13 02:08:12;;;;;;;6.45;1.98;;;;;;;15.84;100.00;101532.16;5050542;28;20025;-65
2023/08/13 02:10:37;;;;;;;8.20;2.38;;;;;;;15.85;100.00;101528.69;5050860;28;20029;-65
2023/08/13 02:13:03;;;;;;;10.48;2.50;;;;;;;15.89;100.00;101539.19;5050833;28;20385;-65
2023/08/13 02:15:28;;;;;;;13.30;2.60;;;;;;;15.88;100.00;101537.44;5050413;28;20036;-65
2023/08/13 02:17:53;;;;;;;5.25;1.75;;;;;;;15.88;100.00;101530.47;5050632;28;20028;-65
2023/08/13 02:20:18;;;;;;;8.07;2.33;;;;;;;15.89;100.00;101523.50;5050584;28;20032;-65
2023/08/13 02:22:44;;;;;;;5.53;1.80;;;;;;;15.89;100.00;101523.50;5051092;28;20082;-65
2023/08/13 02:25:09;;;;;;;6.18;1.85;;;;;;;15.88;100.00;101521.75;5049067;28;20187;-66
2023/08/13 02:27:34;;;;;;;8.48;2.63;;;;;;;15.89;100.00;101528.72;5050543;28;20072;-65
2023/08/13 02:29:59;;;;;;;6.05;2.20;;;;;;;15.91;100.00;101521.81;5050066;28;20033;-65
2023/08/13 02:32:25;;;;;;;7.25;2.00;;;;;;;15.90;100.00;101526.16;5050180;28;20029;-65
2023/08/13 02:34:50;;;;;;;6.90;1.85;;;;;;;15.87;100.00;101519.97;5050335;28;20033;-66
2023/08/13 02:37:15;;;;;;;6.35;2.20;;;;;;;15.85;100.00;101522.56;5050574;28;20476;-65
2023/08/13 02:39:41;;;;;;;6.50;2.15;;;;;;;15.84;100.00;101518.19;5049737;28;20021;-66
2023/08/13 02:42:06;;;;;;;8.30;2.28;;;;;;;15.80;100.00;101514.63;5050204;28;20029;-65
2023/08/13 02:44:31;;;;;;;10.90;3.08;;;;;;;15.77;100.00;101513.69;5050002;28;20027;-65
2023/08/13 02:46:57;;;;;;;7.32;1.98;;;;;;;15.75;100.00;101511.03;5049923;28;20094;-65
2023/08/13 02:49:22;;;;;;;4.85;1.83;;;;;;;15.76;100.00;101518.03;5049654;28;20206;-65
2023/08/13 02:51:48;;;;;;;5.13;1.85;;;;;;;15.71;100.00;101510.09;5049979;28;20082;-66
2023/08/13 02:54:13;;;;;;;7.68;1.98;;;;;;;15.69;100.00;101517.00;5049532;28;20032;-65
2023/08/13 02:56:40;;;;;;;9.60;2.95;;;;;;;15.68;100.00;101509.16;5049822;28;20054;-65
2023/08/13 02:59:06;;;;;;;8.02;2.20;;;;;;;15.61;100.00;101511.63;5050118;28;20036;-65
2023/08/13 03:01:31;;;;;;;8.63;2.10;;;;;;;15.59;100.00;101520.28;5050068;28;20025;-66
2023/08/13 03:04:00;;;;;;;9.45;2.65;;;;;;;15.56;100.00;101515.84;5048903;28;20041;-65
2023/08/13 03:06:25;;;;;;;8.90;2.53;;;;;;;15.52;100.00;101506.22;5049730;28;20078;-66
2023/08/13 03:08:50;;;;;;;9.43;2.50;;;;;;;15.48;100.00;101499.16;5049725;28;20538;-65
2023/08/13 03:11:16;;;;;;;7.13;1.90;;;;;;;15.44;100.00;101507.75;5049561;28;20029;-65
2023/08/13 03:13:42;;;;;;;8.77;2.38;;;;;;;15.42;100.00;101512.06;5049407;28;20028;-65
2023/08/13 03:16:07;;;;;;;7.25;2.00;;;;;;;15.39;100.00;101518.09;5049593;28;20388;-65
2023/08/13 03:18:32;;;;;;;11.85;2.30;;;;;;;15.35;100.00;101511.94;5049675;28;20096;-65
2023/08/13 03:20:58;;;;;;;6.63;2.00;;;;;;;15.32;100.00;101501.44;5049210;28;20032;-65
2023/08/13 03:23:23;;;;;;;7.85;2.70;;;;;;;15.28;100.00;101509.13;5049268;28;20025;-65
2023/08/13 03:25:48;;;;;;;6.03;1.70;;;;;;;15.23;100.00;101511.66;5049057;28;20049;-65
2023/08/13 03:28:13;;;;;;;7.45;2.15;;;;;;;15.20;100.00;101506.38;5048654;28;20090;-65
2023/08/13 03:30:39;;;;;;;10.15;2.10;;;;;;;15.13;100.00;101500.97;5049289;28;20024;-65
2023/08/13 03:33:04;;;;;;;7.28;2.17;;;;;;;15.16;100.00;101510.63;5049592;28;20066;-65
2023/08/13 03:35:30;;;;;;;7.70;2.45;;;;;;;15.13;100.00;101506.19;5049402;28;20056;-65
2023/08/13 03:37:55;;;;;;;9.40;2.40;;;;;;;15.11;100.00;101515.72;5049088;28;20024;-65
2023/08/13 03:40:20;;;;;;;8.50;2.33;;;;;;;15.08;100.00;101515.66;5048908;28;20033;-65
2023/08/13 03:42:46;;;;;;;6.95;1.90;;;;;;;15.02;100.00;101512.88;5048970;28;20029;-65
2023/08/13 03:45:11;;;;;;;6.13;2.25;;;;;;;15.00;100.00;101512.00;5048947;28;20159;-65
2023/08/13 03:47:36;;;;;;;7.25;2.40;;;;;;;14.95;100.00;101506.63;5048587;28;20021;-65
2023/08/13 03:50:02;;;;;;;5.95;1.95;;;;;;;14.95;100.00;101505.78;5048252;28;20036;-65
2023/08/13 03:52:28;;;;;;;8.52;2.30;;;;;;;14.91;100.00;101509.16;5048901;28;20056;-65
2023/08/13 03:54:53;;;;;;;9.82;2.25;;;;;;;14.85;100.00;101513.38;5048906;28;20032;-65
2023/08/13 03:57:18;;;;;;;8.70;2.72;;;;;;;14.82;100.00;101509.81;5048844;28;20630;-65
2023/08/13 03:59:44;;;;;;;8.70;2.60;;;;;;;14.80;100.00;101508.84;5048791;28;20024;-65
2023/08/13 04:02:09;;;;;;;9.02;3.15;;;;;;;14.77;100.00;101517.47;5049046;28;20032;-65
2023/08/13 04:04:34;;;;;;;10.52;2.50;;;;;;;14.73;100.00;101518.25;5048616;28;20911;-65
2023/08/13 04:06:59;;;;;;;9.50;2.33;;;;;;;14.72;100.00;101519.06;5048049;28;20025;-65
2023/08/13 04:09:25;;;;;;;9.18;2.67;;;;;;;14.71;100.00;101526.03;5047308;28;20461;-65
2023/08/13 04:11:50;;;;;;;11.63;3.03;;;;;;;14.70;100.00;101518.16;5047111;28;20049;-65
2023/08/13 04:14:15;;;;;;;7.10;2.60;;;;;;;14.71;100.00;101527.75;5046467;28;20025;-65
2023/08/13 04:16:41;;;;;;;8.35;2.58;;;;;;;14.70;100.00;101520.75;5046612;28;20413;-65
2023/08/13 04:19:06;;;;;;;6.07;2.20;;;;;;;14.71;100.00;101522.53;5046889;28;20024;-65
2023/08/13 04:21:32;;;;;;;7.72;2.28;;;;;;;14.70;100.00;101520.75;5048387;28;20027;-65
2023/08/13 04:23:57;;;;;;;10.32;3.45;;;;;;;14.70;100.00;101518.16;5048058;28;20033;-65
2023/08/13 04:26:23;;;;;;;8.13;2.63;;;;;;;14.69;100.00;101519.00;5048210;28;20051;-65
2023/08/13 04:28:49;;;;;;;12.00;2.70;;;;;;;14.67;100.00;101515.47;5048460;28;20473;-65
2023/08/13 04:31:16;;;;;;;7.63;2.50;;;;;;;14.69;100.00;101519.00;5048378;28;20089;-65
2023/08/13 04:33:42;;;;;;;7.88;2.38;;;;;;;14.69;100.00;101524.22;5047798;28;20025;-65
2023/08/13 04:36:08;;;;;;;6.97;2.53;;;;;;;14.68;100.00;101525.06;5048242;28;20033;-65
2023/08/13 04:38:33;;;;;;;10.30;2.90;;;;;;;14.64;100.00;101519.75;5048226;28;20389;-65
2023/08/13 04:41:00;;;;;;;8.35;3.03;;;;;;;14.62;100.00;101518.84;5047579;28;20021;-65
2023/08/13 04:43:26;;;;;;;7.85;3.00;;;;;;;14.64;100.00;101519.75;5048252;28;20091;-65
2023/08/13 04:45:52;;;;;;;9.73;3.25;;;;;;;14.63;100.00;101519.72;5048305;28;20086;-66
2023/08/13 04:48:38;;;;;;;11.00;3.38;;;;;;;14.63;100.00;101523.22;5048948;28;20029;-65
2023/08/13 04:51:03;;;;;;;6.50;3.03;;;;;;;14.67;100.00;101520.69;5052406;28;20103;-65
2023/08/13 04:53:28;;;;;;;7.63;2.92;;;;;;;14.68;100.00;101527.69;5052573;28;20188;-65
2023/08/13 04:55:53;;;;;;;8.73;2.95;;;;;;;14.68;100.00;101527.69;5052013;28;20032;-65
2023/08/13 04:58:19;;;;;;;8.98;3.05;;;;;;;14.69;100.00;101525.09;5052696;28;20349;-65
2023/08/13 05:00:44;;;;;;;11.25;2.92;;;;;;;14.71;100.00;101527.75;5052349;28;20029;-65
2023/08/13 05:03:09;;;;;;;10.32;2.90;;;;;;;14.75;100.00;101527.00;5052485;28;20187;-65
2023/08/13 05:05:34;;;;;;;6.65;3.65;;;;;;;14.76;100.00;101519.22;5052020;28;20480;-65
2023/08/13 05:08:00;;;;;;;10.88;3.33;;;;;;;14.81;100.00;101519.34;5051949;28;20041;-65
2023/08/13 05:10:25;;;;;;;10.38;2.72;;;;;;;14.81;100.00;101519.34;5052101;28;20388;-65
2023/08/13 05:12:50;;;;;;;6.85;2.92;;;;;;;14.84;100.00;101508.97;5052081;28;20028;-65
2023/08/13 05:15:15;;;;;;;7.03;3.00;;;;;;;14.89;100.00;101511.72;5050324;28;20041;-65
2023/08/13 05:17:41;;;;;;;7.10;2.72;;;;;;;14.92;100.00;101510.91;5051808;28;20035;-65
2023/08/13 05:20:07;;;;;;;10.02;3.10;;;;;;;14.96;100.00;101518.84;5051860;28;20538;-65
2023/08/13 05:22:33;;;;;;;8.93;2.92;;;;;;;15.01;100.00;101516.34;5051352;28;20031;-65
2023/08/13 05:24:58;;;;;;;10.63;3.17;;;;;;;15.03;100.00;101519.88;5051563;28;20053;-65
2023/08/13 05:27:23;;;;;;;7.65;2.60;;;;;;;15.02;100.00;101528.53;5052199;28;20503;-65
2023/08/13 05:29:49;;;;;;;9.02;2.60;;;;;;;15.03;100.00;101530.31;5051924;28;20511;-65
2023/08/13 05:32:14;;;;;;;9.55;2.90;;;;;;;15.04;100.00;101526.84;5051814;28;20495;-65
2023/08/13 05:34:39;;;;;;;7.90;2.45;;;;;;;15.06;100.00;101535.59;5051471;28;20017;-65
2023/08/13 05:37:05;;;;;;;11.10;2.85;;;;;;;15.11;100.00;101528.78;5051805;28;20053;-65
2023/08/13 05:39:30;;;;;;;13.23;3.13;;;;;;;15.15;100.00;101534.09;5051992;28;20095;-65
2023/08/13 05:41:56;;;;;;;7.68;3.00;;;;;;;15.12;100.00;101535.78;5051250;28;20029;-66
2023/08/13 05:44:21;;;;;;;9.38;3.40;;;;;;;15.16;100.00;101530.63;5051769;28;20083;-65
2023/08/13 05:46:46;;;;;;;8.32;2.80;;;;;;;15.17;100.00;101527.16;5051820;28;20331;-65
2023/08/13 05:49:11;;;;;;;6.07;2.55;;;;;;;15.20;100.00;101537.69;5051624;28;20024;-65
2023/08/13 05:51:37;;;;;;;8.55;2.55;;;;;;;15.24;100.00;101544.72;5051318;28;20443;-65
2023/08/13 05:54:02;;;;;;;7.18;2.45;;;;;;;15.29;100.00;101543.09;5051316;28;20036;-65
2023/08/13 05:56:28;;;;;;;6.75;2.72;;;;;;;15.36;100.00;101539.78;5050862;28;20013;-66
2023/08/13 05:58:53;;;;;;;6.22;2.30;;;;;;;15.44;100.00;101536.47;5050668;28;20025;-66
2023/08/13 06:01:18;;;;;;;6.85;2.25;;;;;;;15.52;100.00;101544.50;5050395;28;20392;-66
2023/08/13 06:03:43;;;;;;;7.65;2.83;;;;;;;15.62;100.00;101541.25;5051181;28;20025;-65
2023/08/13 06:06:09;;;;;;;9.77;2.67;;;;;;;15.72;100.00;101547.56;5051141;28;20029;-66
2023/08/13 06:08:34;;;;;;;6.32;2.50;;;;;;;15.80;100.00;101551.22;5050683;28;20021;-65
2023/08/13 06:10:59;;;;;;;7.38;3.33;;;;;;;15.93;100.00;101546.25;5050775;28;20025;-65
2023/08/13 06:13:25;;;;;;;9.48;3.08;;;;;;;16.04;100.00;101544.78;5050975;28;20017;-65
2023/08/13 06:15:50;;;;;;;9.07;2.38;;;;;;;16.13;100.00;101553.66;5050903;28;20039;-65
2023/08/13 06:18:15;;;;;;;6.60;2.05;;;;;;;16.17;100.00;101551.13;5051076;28;20051;-66
2023/08/13 06:20:41;;;;;;;6.38;2.53;;;;;;;16.20;100.00;101542.47;5051019;28;20402;-66
2023/08/13 06:23:06;;;;;;;7.32;2.33;;;;;;;16.21;100.00;101552.06;5050235;28;20029;-66
2023/08/13 06:25:31;;;;;;;6.30;2.47;;;;;;;16.25;100.00;101553.91;5050280;28;20264;-66
2023/08/13 06:27:56;;;;;;;8.68;2.13;;;;;;;16.29;100.00;101547.00;5050413;28;20485;-65
2023/08/13 06:30:22;;;;;;;9.30;2.58;;;;;;;16.33;100.00;101547.06;5050715;28;20029;-66
2023/08/13 06:32:47;;;;;;;6.32;2.28;;;;;;;16.40;100.00;101547.19;5050409;28;20082;-66
2023/08/13 06:35:15;;;;;;;8.30;2.35;;;;;;;16.47;100.00;101546.47;5050656;28;20388;-66
2023/08/13 06:37:40;;;;;;;9.43;3.22;;;;;;;16.47;100.00;101554.31;5050771;28;20116;-65
2023/08/13 06:40:06;;;;;;;7.15;2.40;;;;;;;16.45;100.00;101550.78;5050560;28;20556;-66
2023/08/13 06:42:31;;;;;;;9.75;2.38;;;;;;;16.44;100.00;101549.03;5050564;28;20191;-66
2023/08/13 06:44:57;;;;;;;7.88;2.70;;;;;;;16.45;100.00;101550.78;5049848;28;20037;-65
2023/08/13 06:47:22;;;;;;;8.68;3.08;;;;;;;16.53;100.00;101550.94;5050356;28;20021;-66
2023/08/13 06:49:47;;;;;;;7.85;2.30;;;;;;;16.65;100.00;101558.13;5050245;28;20361;-66
2023/08/13 06:52:13;;;;;;;6.88;2.35;;;;;;;16.73;100.00;101555.66;5050101;28;20525;-66
2023/08/13 06:54:38;;;;;;;8.35;2.53;;;;;;;16.77;100.00;101563.56;5049611;28;20025;-66
2023/08/13 06:57:03;;;;;;;8.70;2.80;;;;;;;16.82;100.00;101561.03;5050473;28;20481;-65
2023/08/13 06:59:29;;;;;;;7.75;2.50;;;;;;;16.83;100.00;101551.44;5050083;28;20024;-66
2023/08/13 07:01:55;;;;;;;6.90;1.90;;;;;;;16.84;100.00;101554.09;5050055;28;20499;-66
2023/08/13 07:04:20;;;;;;;9.77;2.50;;;;;;;16.89;100.00;101547.19;5049702;28;20025;-66
2023/08/13 07:06:45;;;;;;;9.63;2.80;;;;;;;16.97;100.00;101551.69;5049597;28;20452;-66
2023/08/13 07:09:10;;;;;;;10.48;2.85;;;;;;;17.04;100.00;101549.19;5050022;28;20044;-66
2023/08/13 07:11:36;;;;;;;8.23;2.85;;;;;;;17.11;100.00;101547.59;5049365;28;20052;-66
2023/08/13 07:14:03;;;;;;;8.20;2.17;;;;;;;17.16;100.00;101538.06;5049852;28;20033;-66
2023/08/13 07:16:29;;;;;;;9.68;2.72;;;;;;;17.26;100.00;101543.44;5049418;28;20032;-66
2023/08/13 07:18:54;;;;;;;5.60;1.90;;;;;;;17.33;100.00;101539.16;5049786;28;20032;-66
2023/08/13 07:21:19;;;;;;;4.68;1.92;;;;;;;17.39;100.00;101539.28;5049844;28;20480;-66
2023/08/13 07:23:44;;;;;;;7.50;2.35;;;;;;;17.48;100.00;101531.56;5049640;28;20017;-66
2023/08/13 07:26:10;;;;;;;5.90;2.15;;;;;;;17.61;100.00;101536.97;5049446;28;20211;-66
2023/08/13 07:28:35;;;;;;;6.47;2.20;;;;;;;17.79;100.00;101535.44;5048843;28;20481;-66
2023/08/13 07:31:05;;;;;;;8.43;2.10;;;;;;;17.96;100.00;101541.78;5049236;28;20032;-66
2023/08/13 07:33:31;;;;;;;5.72;2.00;;;;;;;18.05;100.00;101543.63;5049570;28;20028;-66
2023/08/13 07:35:58;;;;;;;4.45;1.90;;;;;;;18.14;100.00;101540.28;5049348;28;20032;-65
2023/08/13 07:38:23;;;;;;;6.07;2.05;;;;;;;18.22;100.00;101541.22;5049141;28;20031;-66
2023/08/13 07:40:49;;;;;;;5.00;1.90;;;;;;;18.24;100.00;101538.66;5048842;28;20025;-66
2023/08/13 07:43:14;;;;;;;8.88;2.60;;;;;;;18.34;100.00;101542.25;5049398;28;20540;-66
2023/08/13 07:45:39;;;;;;;8.23;1.83;;;;;;;18.44;100.00;101541.47;5048930;28;20071;-66
2023/08/13 07:48:05;;;;;;;7.22;1.65;;;;;;;18.54;100.00;101541.56;5048972;28;20250;-66
2023/08/13 07:50:30;;;;;;;7.90;2.13;;;;;;;18.59;100.00;101547.72;5049067;28;20106;-66
2023/08/13 07:52:56;;;;;;;7.13;2.03;;;;;;;18.67;100.00;101546.06;5048396;28;20021;-66
2023/08/13 07:55:21;;;;;;;7.95;1.92;;;;;;;18.72;100.00;101536.50;5048981;28;20032;-66
2023/08/13 07:57:46;;;;;;;5.68;2.20;;;;;;;18.76;100.00;101537.41;5048865;28;20025;-66
2023/08/13 08:00:12;;;;;;;5.18;1.90;;;;;;;18.96;100.00;101539.28;5048739;28;20092;-66
2023/08/13 08:02:37;;;;;;;7.70;2.33;;;;;;;19.10;100.00;101539.44;5048892;28;20029;-66
2023/08/13 08:05:05;;;;;;;5.43;1.65;;;;;;;19.25;100.00;101536.03;5048533;28;20718;-66
2023/08/13 08:07:31;;;;;;;6.82;2.10;;;;;;;19.44;100.00;101536.19;5049092;28;20033;-66
2023/08/13 08:09:56;;;;;;;7.03;1.88;;;;;;;19.60;100.00;101539.78;5048211;28;20031;-66
2023/08/13 08:12:21;;;;;;;9.43;2.42;;;;;;;19.83;100.00;101533.72;5048830;28;20021;-66
2023/08/13 08:14:47;;;;;;;8.25;1.98;;;;;;;19.90;100.00;101539.88;5048894;28;20032;-66
2023/08/13 08:17:12;;;;;;;8.15;2.33;;;;;;;19.99;100.00;101539.03;5048276;28;20035;-66
2023/08/13 08:19:37;;;;;;;8.80;1.88;;;;;;;20.07;100.00;101539.13;5048421;28;20489;-66
2023/08/13 08:22:03;;;;;;;5.75;1.52;;;;;;;19.97;100.00;101538.19;5048296;28;20028;-66
2023/08/13 08:24:28;;;;;;;8.18;1.90;;;;;;;19.82;100.00;101536.38;5048241;28;20112;-66
2023/08/13 08:26:53;;;;;;;8.02;2.75;;;;;;;19.76;100.00;101537.22;5048709;28;20506;-66
2023/08/13 08:29:19;;;;;;;7.40;2.15;;;;;;;19.77;100.00;101538.97;5047931;28;20029;-66
2023/08/13 08:31:44;;;;;;;7.53;2.13;;;;;;;19.83;100.00;101539.00;5048460;28;20025;-66
2023/08/13 08:34:09;;;;;;;8.20;2.15;;;;;;;19.79;100.00;101542.47;5048829;28;20020;-67
2023/08/13 08:36:34;;;;;;;5.18;1.58;;;;;;;19.87;100.00;101537.25;5048670;28;20028;-66
2023/08/13 08:39:00;;;;;;;7.65;2.35;;;;;;;19.97;100.00;101536.41;5048622;28;20013;-67
2023/08/13 08:41:28;;;;;;;9.10;1.85;;;;;;;20.05;100.00;101539.13;5047918;28;20032;-67
2023/08/13 08:43:54;;;;;;;8.38;1.88;;;;;;;20.11;100.00;101533.84;5048345;28;20024;-66
2023/08/13 08:46:19;;;;;;;7.38;1.70;;;;;;;20.16;100.00;101532.13;5048059;28;20020;-66
2023/08/13 08:48:45;;;;;;;8.63;2.03;;;;;;;20.21;100.00;101539.16;5048155;28;20031;-66
2023/08/13 08:51:10;;;;;;;7.05;1.60;;;;;;;20.19;100.00;101530.38;5048660;28;20075;-66
2023/08/13 08:53:37;;;;;;;8.48;2.67;;;;;;;20.21;100.00;101533.88;5047920;28;20469;-67
2023/08/13 08:56:02;;;;;;;6.65;2.10;;;;;;;20.40;100.00;101530.44;5048300;28;20041;-66
2023/08/13 08:58:27;;;;;;;6.82;2.15;;;;;;;20.59;100.00;101529.56;5048556;28;20432;-67
2023/08/13 09:00:59;;;;;;;5.97;1.67;;;;;;;20.69;100.00;101530.44;5048455;28;20033;-66
2023/08/13 09:03:25;;;;;;;6.90;2.00;;;;;;;20.81;100.00;101525.22;5048630;28;20020;-66
2023/08/13 09:05:51;;;;;;;4.20;1.80;;;;;;;21.03;100.00;101527.84;5047742;28;20051;-67
2023/08/13 09:08:16;;;;;;;4.78;1.20;;;;;;;21.24;100.00;101523.44;5047724;28;20033;-66
2023/08/13 09:10:44;;;;;;;4.15;1.40;;;;;;;21.28;97.27;101513.78;5048349;28;20025;-66
2023/08/13 09:13:09;;;;;;;5.03;1.52;;;;;;;21.37;96.45;101512.88;5047842;28;20027;-67
2023/08/13 09:15:58;;;;;;;6.72;1.90;;;;;;;21.43;97.06;101507.56;5047954;28;20147;-67
2023/08/13 09:18:23;;;;;;;9.02;1.77;;;;;;;21.59;100.00;101506.66;5047409;28;20564;-67
2023/08/13 09:20:49;;;;;;;5.07;1.50;;;;;;;21.70;100.00;101497.81;5048085;28;20049;-66
2023/08/13 09:23:24;;;;;;;6.28;2.10;;;;;;;21.66;98.31;101506.63;5048088;28;20057;-66
2023/08/13 09:25:54;;;;;;;4.57;1.65;;;;;;;21.34;94.25;101512.00;5047661;28;20045;-66
2023/08/13 09:28:19;;;;;;;5.10;1.73;;;;;;;21.39;94.87;101505.84;5047634;28;20025;-66
2023/08/13 09:30:45;;;;;;;8.30;2.35;;;;;;;21.35;94.47;101497.91;5048216;28;20378;-66
2023/08/13 09:33:13;;;;;;;4.80;1.83;;;;;;;21.24;93.52;101500.59;5047446;28;20083;-66
2023/08/13 09:35:39;;;;;;;4.70;2.03;;;;;;;21.26;95.97;101500.59;5051333;28;20037;-67
2023/08/13 09:38:05;;;;;;;7.55;2.05;;;;;;;21.20;93.44;101500.59;5051733;28;20366;-66
2023/08/13 09:40:30;;;;;;;6.85;2.15;;;;;;;21.34;95.98;101492.66;5051735;28;20025;-66
2023/08/13 09:42:57;;;;;;;10.02;2.17;;;;;;;21.44;96.06;101489.09;5050986;28;20399;-66
2023/08/13 09:45:26;;;;;;;6.57;2.47;;;;;;;21.54;93.71;101475.91;5051696;28;20381;-67
2023/08/13 09:47:55;;;;;;;5.90;1.92;;;;;;;21.57;92.87;101476.78;5051811;28;20047;-66
2023/08/13 09:50:21;;;;;;;5.53;2.05;;;;;;;21.64;95.80;101480.25;5051206;28;20032;-67
2023/08/13 09:52:47;;;;;;;6.90;2.08;;;;;;;21.78;91.94;101479.31;5051202;28;20064;-66
2023/08/13 09:55:15;;;;;;;5.47;1.77;;;;;;;21.92;89.27;101476.66;5051015;28;20060;-66
2023/08/13 09:57:43;;;;;;;5.82;2.25;;;;;;;21.85;87.69;101478.44;5051431;28;20069;-66
2023/08/13 10:00:11;;;;;;;7.00;2.03;;;;;;;21.69;85.45;101473.22;5051210;28;20029;-66
2023/08/13 10:02:38;;;;;;;6.53;2.05;;;;;;;21.95;89.86;101476.63;5051313;28;20033;-67
2023/08/13 10:05:04;;;;;;;5.13;1.63;;;;;;;21.98;88.01;101473.97;5051246;28;20029;-66
2023/08/13 10:07:30;;;;;;;7.55;2.28;;;;;;;22.11;90.02;101473.91;5051122;28;20365;-66
2023/08/13 10:09:57;;;;;;;6.85;2.40;;;;;;;22.15;88.20;101467.69;5050357;28;20640;-66
2023/08/13 10:12:24;;;;;;;6.75;2.05;;;;;;;22.13;86.42;101478.28;5051136;28;20047;-67
2023/08/13 10:14:49;;;;;;;4.85;1.65;;;;;;;22.18;87.63;101471.19;5051405;28;20106;-67
2023/08/13 10:17:19;;;;;;;10.15;2.30;;;;;;;22.06;85.13;101480.06;5051032;28;20024;-67
2023/08/13 10:19:51;;;;;;;4.75;1.73;;;;;;;22.18;88.62;101470.34;5050961;28;20071;-66
2023/08/13 10:22:44;;;;;;;4.72;1.83;;;;;;;22.25;90.48;101464.09;5050268;28;20501;-66
2023/08/13 10:25:28;;;;;;;7.15;2.35;;;;;;;22.40;90.22;101471.03;5049525;28;20040;-66
2023/08/13 10:27:55;;;;;;;5.20;2.05;;;;;;;22.45;88.85;101463.06;5050929;28;20059;-66
2023/08/13 10:30:20;;;;;;;4.63;2.08;;;;;;;22.49;87.50;101459.53;5050416;28;20033;-66
2023/08/13 10:32:54;;;;;;;5.25;1.80;;;;;;;22.31;85.09;101471.09;5050563;28;20025;-66
2023/08/13 10:35:29;;;;;;;7.03;1.83;;;;;;;22.41;88.72;101464.00;5049972;28;20031;-66
2023/08/13 10:38:00;;;;;;;8.15;2.58;;;;;;;22.45;89.24;101463.06;5050506;28;20035;-67
2023/08/13 10:40:26;;;;;;;3.80;1.55;;;;;;;22.33;87.98;101465.81;5050790;28;20111;-66
2023/08/13 10:42:55;;;;;;;5.30;2.17;;;;;;;22.19;85.77;101458.88;5050230;28;20029;-66
2023/08/13 10:45:34;;;;;;;7.38;2.00;;;;;;;22.21;87.34;101457.13;5050000;28;20022;-67
2023/08/13 10:48:01;;;;;;;5.53;1.90;;;;;;;22.09;86.55;101458.06;5049561;28;20496;-66
2023/08/13 10:50:28;;;;;;;7.13;2.28;;;;;;;22.20;88.08;101452.72;5049842;28;20033;-66
2023/08/13 10:53:09;;;;;;;5.47;1.88;;;;;;;22.24;91.53;101456.19;5050001;28;20042;-66
2023/08/13 10:55:50;;;;;;;6.78;2.10;;;;;;;22.33;90.42;101447.34;5048429;28;20028;-66
2023/08/13 10:58:29;;;;;;;5.00;2.22;;;;;;;22.51;86.05;101452.47;5039743;28;20040;-66
2023/08/13 11:00:59;;;;;;;5.10;1.98;;;;;;;22.72;85.20;101450.56;5030872;28;20064;-67
2023/08/13 11:03:31;;;;;;;4.78;2.10;;;;;;;22.85;81.92;101445.16;5030150;28;20100;-66
2023/08/13 11:05:57;;;;;;;8.52;2.60;;;;;;;22.97;83.39;101445.03;5037802;28;20112;-66
2023/08/13 11:08:24;;;;;;;7.20;2.28;;;;;;;22.96;81.92;101447.69;5037530;28;20434;-67
2023/08/13 11:10:50;;;;;;;6.05;2.10;;;;;;;23.25;84.68;101443.84;5036878;28;20108;-66
2023/08/13 11:13:17;;;;;;;8.35;1.83;;;;;;;23.48;83.30;101445.38;5037955;28;20071;-66
2023/08/13 11:15:50;;;;;;;9.07;1.90;;;;;;;23.49;80.88;101442.69;5038025;28;20025;-66